Time;durP1;ratioP1;P1;durP2;ratioP2;P2;SDS_P1;SDS_P2;PMS_P1;PMS_P2;Temp;Humidity;BMP_temperature;BMP_pressure;BME280_temperature;BME280_humidity;BME280_pressure;Samples;Min_cycle;Max_cycle;Signal;HPM_P1;HPM_P2
2021/06/04 00:02:09;;;;;;;8.38;7.57;;;14.90;99.90;;;;;;5034494;28;20033;-80
2021/06/04 00:04:36;;;;;;;7.90;7.10;;;14.90;99.90;;;;;;5033618;28;20030;-79
2021/06/04 00:07:02;;;;;;;9.23;7.35;;;14.80;99.90;;;;;;5032968;28;20068;-79
2021/06/04 00:09:28;;;;;;;7.95;6.97;;;14.80;99.90;;;;;;5032032;28;20127;-79
2021/06/04 00:11:58;;;;;;;7.85;7.05;;;14.70;99.90;;;;;;5033076;28;20221;-79
2021/06/04 00:14:49;;;;;;;8.80;7.82;;;14.70;99.90;;;;;;5033031;28;20025;-79
2021/06/04 00:17:19;;;;;;;9.40;7.00;;;14.60;99.90;;;;;;5029917;28;20049;-80
2021/06/04 00:19:45;;;;;;;7.80;7.10;;;14.60;99.90;;;;;;5032411;28;20021;-78
2021/06/04 00:22:24;;;;;;;8.50;7.28;;;14.50;99.90;;;;;;5033959;28;20075;-80
2021/06/04 00:24:52;;;;;;;8.02;7.10;;;14.50;99.90;;;;;;5034194;28;20020;-80
2021/06/04 00:27:19;;;;;;;9.43;7.22;;;14.50;99.90;;;;;;5032770;28;20083;-80
2021/06/04 00:29:45;;;;;;;10.27;7.80;;;14.40;99.90;;;;;;5033945;28;20461;-80
2021/06/04 00:32:13;;;;;;;9.07;6.72;;;14.30;99.90;;;;;;5051212;28;20554;-80
2021/06/04 00:34:39;;;;;;;9.25;7.28;;;14.30;99.90;;;;;;5035985;28;20412;-79
2021/06/04 00:37:05;;;;;;;8.32;7.32;;;14.20;99.90;;;;;;5035938;28;20033;-79
2021/06/04 00:39:34;;;;;;;7.75;6.93;;;14.20;99.90;;;;;;5035803;28;20048;-79
2021/06/04 00:42:04;;;;;;;9.43;7.53;;;14.20;99.90;;;;;;5053630;28;20053;-79
2021/06/04 00:44:31;;;;;;;11.23;7.13;;;14.20;99.90;;;;;;5035769;28;20037;-80
2021/06/04 00:46:57;;;;;;;10.70;7.50;;;14.10;99.90;;;;;;5053386;28;20092;-80
2021/06/04 00:49:24;;;;;;;9.23;7.28;;;14.10;99.90;;;;;;5053390;28;20032;-80
2021/06/04 00:51:53;;;;;;;10.80;7.70;;;14.10;99.90;;;;;;5053405;28;20484;-80
2021/06/04 00:54:20;;;;;;;12.05;8.07;;;14.10;99.90;;;;;;5035465;28;20047;-80
2021/06/04 00:56:48;;;;;;;8.40;7.28;;;14.10;99.90;;;;;;5035396;28;20041;-80
2021/06/04 00:59:23;;;;;;;9.95;8.18;;;14.00;99.90;;;;;;5035490;28;20365;-80
2021/06/04 01:01:50;;;;;;;8.10;7.40;;;14.10;99.90;;;;;;5035276;28;20028;-80
2021/06/04 01:04:19;;;;;;;10.60;7.50;;;14.10;99.90;;;;;;5035417;28;20029;-80
2021/06/04 01:07:03;;;;;;;8.65;7.30;;;14.00;99.90;;;;;;5035136;28;20078;-80
2021/06/04 01:09:46;;;;;;;10.18;8.15;;;14.10;99.90;;;;;;5035140;28;20029;-79
2021/06/04 01:12:47;;;;;;;8.70;7.85;;;14.10;99.90;;;;;;5035107;28;20028;-80
2021/06/04 01:15:19;;;;;;;8.77;6.35;;;14.00;99.90;;;;;;5008917;28;20091;-80
2021/06/04 01:18:00;;;;;;;8.63;7.63;;;14.00;99.90;;;;;;5035141;28;20090;-79
2021/06/04 01:20:45;;;;;;;8.32;7.20;;;13.90;99.90;;;;;;5052701;28;20017;-79
2021/06/04 01:23:35;;;;;;;8.43;7.53;;;13.90;99.90;;;;;;5035103;28;20083;-80
2021/06/04 01:26:11;;;;;;;9.38;7.22;;;13.80;99.90;;;;;;5052814;28;20262;-80
2021/06/04 01:28:44;;;;;;;10.95;7.70;;;13.70;99.90;;;;;;5053013;28;20025;-81
2021/06/04 01:31:31;;;;;;;8.52;7.72;;;13.70;99.90;;;;;;5052986;28;20048;-79
2021/06/04 01:34:03;;;;;;;8.73;7.80;;;13.70;99.90;;;;;;5032168;28;20087;-80
2021/06/04 01:36:32;;;;;;;9.50;8.00;;;13.60;99.90;;;;;;5052680;28;20029;-80
2021/06/04 01:39:05;;;;;;;8.80;8.00;;;13.60;99.90;;;;;;5052850;28;20018;-80
2021/06/04 01:41:32;;;;;;;8.13;7.22;;;13.50;99.90;;;;;;5035043;28;20380;-80
2021/06/04 01:44:07;;;;;;;9.32;8.05;;;13.50;99.90;;;;;;5052415;28;20021;-79
2021/06/04 01:46:37;;;;;;;8.43;7.60;;;13.40;99.90;;;;;;5052795;28;20035;-80
2021/06/04 01:49:09;;;;;;;8.90;8.00;;;13.50;99.90;;;;;;5035059;28;20087;-79
2021/06/04 01:51:40;;;;;;;10.55;8.00;;;13.40;99.90;;;;;;5053004;28;20021;-78
2021/06/04 01:54:27;;;;;;;10.35;9.35;;;13.40;99.90;;;;;;5034788;28;20048;-79
2021/06/04 01:56:58;;;;;;;11.25;8.68;;;13.30;99.90;;;;;;5034805;28;20515;-80
2021/06/04 01:59:32;;;;;;;9.52;8.60;;;13.30;99.90;;;;;;5052614;28;20031;-79
2021/06/04 02:01:58;;;;;;;10.20;9.20;;;13.30;99.90;;;;;;5034951;28;20029;-80
2021/06/04 02:04:36;;;;;;;10.60;8.18;;;13.30;99.90;;;;;;5052676;28;20047;-80
2021/06/04 02:07:05;;;;;;;11.40;8.70;;;13.20;99.90;;;;;;5034785;28;20055;-80
2021/06/04 02:09:31;;;;;;;9.35;8.45;;;13.20;99.90;;;;;;5034726;28;20119;-80
2021/06/04 02:11:58;;;;;;;10.55;8.77;;;13.30;99.90;;;;;;5034752;28;20476;-80
2021/06/04 02:14:29;;;;;;;9.15;8.25;;;13.40;99.90;;;;;;5034560;28;20061;-79
2021/06/04 02:16:57;;;;;;;10.85;8.20;;;13.30;99.90;;;;;;5034613;28;21114;-80
2021/06/04 02:19:28;;;;;;;11.52;8.55;;;13.30;99.90;;;;;;5034441;28;20403;-80
2021/06/04 02:22:11;;;;;;;9.75;8.40;;;13.30;99.90;;;;;;5052045;28;20036;-80
2021/06/04 02:24:59;;;;;;;9.93;8.93;;;13.30;99.90;;;;;;5052038;28;20131;-79
2021/06/04 02:27:36;;;;;;;11.52;8.38;;;13.20;99.90;;;;;;5034469;28;20480;-80
2021/06/04 02:30:23;;;;;;;10.60;9.52;;;13.20;99.90;;;;;;5034323;28;20025;-80
2021/06/04 02:32:59;;;;;;;9.80;8.82;;;13.20;99.90;;;;;;5035709;28;20045;-80
2021/06/04 02:35:36;;;;;;;9.75;8.85;;;13.20;99.90;;;;;;5056093;28;20452;-80
2021/06/04 02:38:11;;;;;;;11.32;9.18;;;13.20;99.90;;;;;;5037851;28;20045;-81
2021/06/04 02:40:45;;;;;;;9.63;8.63;;;13.20;99.90;;;;;;5038017;28;20029;-80
2021/06/04 02:43:35;;;;;;;9.13;8.15;;;13.30;99.90;;;;;;5032121;28;20040;-79
2021/06/04 02:46:25;;;;;;;9.95;8.95;;;13.20;99.90;;;;;;5037795;28;20472;-79
2021/06/04 02:48:52;;;;;;;10.60;9.05;;;13.20;99.90;;;;;;5055730;28;20052;-79
2021/06/04 02:51:48;;;;;;;9.98;8.98;;;13.20;99.90;;;;;;5038320;28;20483;-80
2021/06/04 02:54:19;;;;;;;9.85;8.65;;;13.20;99.90;;;;;;5037783;28;20063;-80
2021/06/04 02:56:48;;;;;;;10.48;9.18;;;13.20;99.90;;;;;;5037782;28;20036;-80
2021/06/04 02:59:23;;;;;;;10.30;8.40;;;13.20;99.90;;;;;;5037343;28;20039;-80
2021/06/04 03:01:54;;;;;;;;;;;13.20;99.90;;;;;;5038111;28;20016;-81
2021/06/04 03:04:20;;;;;;;9.93;8.68;;;13.20;99.90;;;;;;5037882;28;20276;-80
2021/06/04 03:06:51;;;;;;;9.48;8.48;;;13.30;99.90;;;;;;5037920;28;20540;-80
2021/06/04 03:09:22;;;;;;;9.65;8.65;;;13.30;99.90;;;;;;5055340;28;20037;-80
2021/06/04 03:11:51;;;;;;;9.30;8.40;;;13.30;99.90;;;;;;5037051;28;20033;-80
2021/06/04 03:14:18;;;;;;;13.27;8.25;;;13.40;99.90;;;;;;5037203;28;20028;-79
2021/06/04 03:16:45;;;;;;;13.50;8.68;;;13.40;99.90;;;;;;5037511;28;20452;-80
2021/06/04 03:19:14;;;;;;;8.68;7.88;;;13.30;99.90;;;;;;5037263;28;20460;-80
2021/06/04 03:21:49;;;;;;;8.90;7.68;;;13.30;99.90;;;;;;5037352;28;20511;-80
2021/06/04 03:24:22;;;;;;;12.00;8.20;;;13.30;99.90;;;;;;5055122;28;20040;-80
2021/06/04 03:26:48;;;;;;;8.32;7.53;;;13.30;99.90;;;;;;5037294;28;20041;-81
2021/06/04 03:29:16;;;;;;;9.52;8.23;;;13.20;99.90;;;;;;5037052;28;20021;-80
2021/06/04 03:31:45;;;;;;;8.90;8.05;;;13.30;99.90;;;;;;5033507;28;20073;-80
2021/06/04 03:34:12;;;;;;;9.07;8.18;;;13.30;99.90;;;;;;5035272;28;20022;-79
2021/06/04 03:36:41;;;;;;;9.50;8.60;;;13.40;99.90;;;;;;5033551;28;20854;-81
2021/06/04 03:39:17;;;;;;;9.43;8.43;;;13.40;99.90;;;;;;5033589;28;20029;-80
2021/06/04 03:41:45;;;;;;;9.00;7.10;;;13.50;99.90;;;;;;5034102;28;20024;-83
2021/06/04 03:44:14;;;;;;;6.47;5.88;;;14.40;99.90;;;;;;5038370;28;20087;-81
2021/06/04 03:46:40;;;;;;;7.78;6.00;;;15.50;99.90;;;;;;5039850;28;20029;-82
2021/06/04 03:49:08;;;;;;;6.70;5.22;;;16.40;99.90;;;;;;5034409;28;20040;-85
2021/06/04 03:51:37;;;;;;;7.18;6.47;;;16.40;99.90;;;;;;5034574;28;20032;-81
2021/06/04 03:54:06;;;;;;;8.98;5.35;;;16.70;99.90;;;;;;5034243;28;20431;-82
2021/06/04 03:56:33;;;;;;;6.18;5.57;;;17.20;99.90;;;;;;5033738;28;20125;-80
2021/06/04 03:58:59;;;;;;;8.00;5.50;;;16.80;99.90;;;;;;5035068;28;20059;-82
2021/06/04 04:01:28;;;;;;;6.22;5.28;;;16.70;99.90;;;;;;5034981;28;20509;-81
2021/06/04 04:03:54;;;;;;;8.15;5.35;;;17.10;99.90;;;;;;5034089;28;20029;-82
2021/06/04 04:06:20;;;;;;;8.48;5.95;;;17.00;99.90;;;;;;5034233;28;20022;-80
2021/06/04 04:08:46;;;;;;;8.18;5.10;;;16.60;99.90;;;;;;5033829;28;20033;-80
2021/06/04 04:11:12;;;;;;;6.07;4.97;;;16.70;99.90;;;;;;5033642;28;20029;-81
2021/06/04 04:13:38;;;;;;;7.07;5.78;;;16.90;99.90;;;;;;5033315;28;20026;-80
2021/06/04 04:16:04;;;;;;;7.55;5.72;;;17.00;99.90;;;;;;5035001;28;20079;-86
2021/06/04 04:18:30;;;;;;;7.55;5.78;;;16.90;99.90;;;;;;5035344;28;20025;-80
2021/06/04 04:20:59;;;;;;;7.22;6.25;;;16.60;99.90;;;;;;5033868;28;20025;-80
2021/06/04 04:23:34;;;;;;;8.52;6.43;;;16.50;99.90;;;;;;5033631;28;20037;-80
2021/06/04 04:26:00;;;;;;;9.25;6.03;;;16.30;99.90;;;;;;5033642;28;20078;-79
2021/06/04 04:28:33;;;;;;;6.80;6.13;;;16.30;99.90;;;;;;5033357;28;20109;-80
2021/06/04 04:31:01;;;;;;;7.65;6.82;;;16.20;99.90;;;;;;5041790;28;20040;-81
2021/06/04 04:33:28;;;;;;;6.57;5.78;;;16.30;99.90;;;;;;5036623;28;20035;-80
2021/06/04 04:35:54;;;;;;;10.60;6.78;;;16.10;99.90;;;;;;5054326;28;20031;-80
2021/06/04 04:38:21;;;;;;;8.55;6.40;;;16.20;99.90;;;;;;5036420;28;20040;-80
2021/06/04 04:40:49;;;;;;;29.70;7.03;;;16.70;99.90;;;;;;5036637;28;20017;-80
2021/06/04 04:43:16;;;;;;;7.85;5.72;;;16.60;99.90;;;;;;5036461;28;20032;-79
2021/06/04 04:45:41;;;;;;;8.18;6.22;;;16.40;99.90;;;;;;5036746;28;20035;-81
2021/06/04 04:48:08;;;;;;;6.65;6.03;;;16.30;99.90;;;;;;5054605;28;20024;-79
2021/06/04 04:50:35;;;;;;;9.95;7.20;;;16.50;99.90;;;;;;5054112;28;20452;-79
2021/06/04 04:53:02;;;;;;;9.07;6.45;;;16.70;99.90;;;;;;5036405;28;20491;-79
2021/06/04 04:55:31;;;;;;;8.93;6.40;;;16.50;99.90;;;;;;5035716;28;20025;-81
2021/06/04 04:57:57;;;;;;;7.20;6.50;;;16.60;99.90;;;;;;5036115;28;20033;-79
2021/06/04 05:00:27;;;;;;;10.23;6.38;;;16.80;99.90;;;;;;5054152;28;20021;-81
2021/06/04 05:02:53;;;;;;;7.90;6.47;;;16.60;99.90;;;;;;5035610;28;20505;-80
2021/06/04 05:05:23;;;;;;;12.35;7.10;;;16.60;99.90;;;;;;5036185;28;20021;-82
2021/06/04 05:07:49;;;;;;;8.63;6.93;;;16.60;99.90;;;;;;5053935;28;20021;-78
2021/06/04 05:10:15;;;;;;;8.23;6.88;;;17.00;99.90;;;;;;5053744;28;20028;-79
2021/06/04 05:12:41;;;;;;;9.80;7.07;;;17.10;99.90;;;;;;5036222;28;20547;-80
2021/06/04 05:15:12;;;;;;;8.15;7.20;;;17.00;99.90;;;;;;5053496;28;20100;-79
2021/06/04 05:17:37;;;;;;;7.72;6.68;;;17.20;99.90;;;;;;5053534;28;20040;-81
2021/06/04 05:20:04;;;;;;;8.20;6.93;;;17.30;99.90;;;;;;5053487;28;20096;-80
2021/06/04 05:22:30;;;;;;;8.65;7.43;;;17.10;99.90;;;;;;5035689;28;20377;-81
2021/06/04 05:24:56;;;;;;;9.10;7.65;;;17.00;99.90;;;;;;5053072;28;20047;-79
2021/06/04 05:27:22;;;;;;;8.73;7.07;;;16.90;99.90;;;;;;5035339;28;20414;-79
2021/06/04 05:29:48;;;;;;;8.38;7.53;;;16.70;99.90;;;;;;5052739;28;20029;-79
2021/06/04 05:32:15;;;;;;;11.15;7.40;;;16.70;99.90;;;;;;5031464;28;20045;-81
2021/06/04 05:34:41;;;;;;;9.60;7.90;;;16.70;99.90;;;;;;5031637;28;20075;-81
2021/06/04 05:37:07;;;;;;;7.20;6.50;;;16.70;99.90;;;;;;5031274;28;20041;-80
2021/06/04 05:39:33;;;;;;;9.88;7.20;;;16.70;99.90;;;;;;5031313;28;20074;-81
2021/06/04 05:42:03;;;;;;;9.63;7.28;;;16.70;99.90;;;;;;5032942;28;20025;-79
2021/06/04 05:44:31;;;;;;;7.75;6.95;;;16.70;99.90;;;;;;5032590;28;20033;-79
2021/06/04 05:47:00;;;;;;;9.05;7.38;;;16.90;99.90;;;;;;5031288;28;20385;-80
2021/06/04 05:49:26;;;;;;;8.70;7.10;;;17.20;99.90;;;;;;5032611;28;20373;-80
2021/06/04 05:51:54;;;;;;;8.15;6.85;;;17.30;99.90;;;;;;5031244;28;20057;-79
2021/06/04 05:54:20;;;;;;;11.18;6.40;;;17.50;99.90;;;;;;5032397;28;20381;-79
2021/06/04 05:56:46;;;;;;;8.55;6.85;;;17.60;99.90;;;;;;5033129;28;20030;-78
2021/06/04 05:59:15;;;;;;;8.07;6.85;;;17.80;99.90;;;;;;5033074;28;20539;-80
2021/06/04 06:01:41;;;;;;;7.97;6.35;;;18.00;99.90;;;;;;5033003;28;20017;-79
2021/06/04 06:04:07;;;;;;;7.80;6.45;;;18.30;99.90;;;;;;5032301;28;20018;-79
2021/06/04 06:06:33;;;;;;;8.20;6.97;;;18.40;99.90;;;;;;5033160;28;20026;-79
2021/06/04 06:08:59;;;;;;;8.40;6.38;;;18.70;99.90;;;;;;5036325;28;20053;-78
2021/06/04 06:11:27;;;;;;;8.63;6.47;;;18.80;99.90;;;;;;5036901;28;20138;-78
2021/06/04 06:13:56;;;;;;;10.90;6.53;;;18.90;99.90;;;;;;5037094;28;20101;-80
2021/06/04 06:16:22;;;;;;;7.55;5.80;;;19.20;99.90;;;;;;5035291;28;20167;-78
2021/06/04 06:18:48;;;;;;;9.48;6.25;;;19.40;99.90;;;;;;5035245;28;20049;-78
2021/06/04 06:21:14;;;;;;;10.88;6.75;;;19.60;99.90;;;;;;5036463;28;20440;-79
2021/06/04 06:23:40;;;;;;;13.00;6.88;;;19.70;99.90;;;;;;5036121;28;20102;-80
2021/06/04 06:26:12;;;;;;;10.57;6.63;;;19.70;99.90;;;;;;5036357;28;20460;-79
2021/06/04 06:28:40;;;;;;;7.13;6.05;;;19.80;99.90;;;;;;5035148;28;20030;-78
2021/06/04 06:31:10;;;;;;;9.77;6.30;;;20.00;99.90;;;;;;5044536;28;20123;-79
2021/06/04 06:33:36;;;;;;;11.57;6.45;;;20.10;99.90;;;;;;5038415;28;20029;-77
2021/06/04 06:36:07;;;;;;;9.80;6.13;;;20.30;99.90;;;;;;5055886;28;20484;-79
2021/06/04 06:38:34;;;;;;;6.47;5.47;;;20.40;99.90;;;;;;5055626;28;20102;-77
2021/06/04 06:41:03;;;;;;;9.88;5.60;;;20.40;99.70;;;;;;5037377;28;20045;-78
2021/06/04 06:43:32;;;;;;;13.88;6.43;;;20.50;99.10;;;;;;5037812;28;20471;-79
2021/06/04 06:45:58;;;;;;;7.82;6.10;;;20.60;99.20;;;;;;5038587;28;20017;-83
2021/06/04 06:48:24;;;;;;;8.18;5.97;;;20.60;99.30;;;;;;5038870;28;20023;-81
2021/06/04 06:50:50;;;;;;;8.63;5.85;;;20.60;98.80;;;;;;5056053;28;20100;-82
2021/06/04 06:53:17;;;;;;;9.20;6.03;;;20.80;98.60;;;;;;5056259;28;20024;-78
2021/06/04 06:55:45;;;;;;;9.05;6.00;;;20.90;99.00;;;;;;5056160;28;20029;-79
2021/06/04 06:58:12;;;;;;;10.35;5.18;;;21.10;98.60;;;;;;5038029;28;20086;-79
2021/06/04 07:00:42;;;;;;;5.53;4.28;;;21.30;97.50;;;;;;5055985;28;20112;-81
2021/06/04 07:03:10;;;;;;;4.97;3.97;;;21.60;95.60;;;;;;5056282;28;20526;-80
2021/06/04 07:05:36;;;;;;;5.30;4.43;;;21.80;94.60;;;;;;5054812;28;20053;-79
2021/06/04 07:08:03;;;;;;;4.63;4.22;;;21.90;94.00;;;;;;5037632;28;20048;-79
2021/06/04 07:10:29;;;;;;;12.73;5.00;;;22.10;94.10;;;;;;5037326;28;20439;-79
2021/06/04 07:13:00;;;;;;;10.25;4.25;;;22.30;93.70;;;;;;5055266;28;20086;-79
2021/06/04 07:15:27;;;;;;;7.85;4.70;;;22.40;94.10;;;;;;5054871;28;20472;-79
2021/06/04 07:17:54;;;;;;;9.02;4.80;;;22.50;93.80;;;;;;5036491;28;20051;-77
2021/06/04 07:20:23;;;;;;;9.30;4.40;;;22.70;94.20;;;;;;5054279;28;20092;-79
2021/06/04 07:22:54;;;;;;;4.88;4.32;;;22.90;93.40;;;;;;5054088;28;20021;-79
2021/06/04 07:25:22;;;;;;;6.47;4.15;;;22.90;93.10;;;;;;5054034;28;20033;-77
2021/06/04 07:27:49;;;;;;;4.95;3.90;;;23.00;93.20;;;;;;5054450;28;20439;-79
2021/06/04 07:30:17;;;;;;;6.30;3.55;;;23.20;92.50;;;;;;5054381;28;20024;-77
2021/06/04 07:32:44;;;;;;;4.68;3.63;;;23.40;91.50;;;;;;5054604;28;20104;-79
2021/06/04 07:35:13;;;;;;;9.68;3.75;;;23.50;92.40;;;;;;5054111;28;20127;-79
2021/06/04 07:37:39;;;;;;;6.57;3.70;;;23.60;92.60;;;;;;5036312;28;20128;-79
2021/06/04 07:40:08;;;;;;;4.25;3.78;;;23.70;91.20;;;;;;5036007;28;20018;-78
2021/06/04 07:42:34;;;;;;;9.63;4.32;;;23.70;91.10;;;;;;5052973;28;20120;-78
2021/06/04 07:45:00;;;;;;;4.63;3.25;;;23.80;90.60;;;;;;5035762;28;20025;-79
2021/06/04 07:47:26;;;;;;;9.13;3.80;;;24.00;90.70;;;;;;5053980;28;20112;-80
2021/06/04 07:49:51;;;;;;;6.28;3.58;;;24.10;89.80;;;;;;5035825;28;20035;-78
2021/06/04 07:52:17;;;;;;;6.43;3.45;;;24.20;90.00;;;;;;5053926;28;20104;-79
2021/06/04 07:54:43;;;;;;;7.45;3.75;;;24.30;90.00;;;;;;5035920;28;20100;-77
2021/06/04 07:57:09;;;;;;;5.53;3.45;;;24.30;88.90;;;;;;5036596;28;20064;-82
2021/06/04 07:59:34;;;;;;;6.57;3.90;;;24.20;88.40;;;;;;5054798;28;20043;-80
2021/06/04 08:02:00;;;;;;;8.82;4.03;;;24.00;87.60;;;;;;5037003;28;20119;-81
2021/06/04 08:04:26;;;;;;;6.07;3.65;;;24.00;89.50;;;;;;5037556;28;20021;-80
2021/06/04 08:06:51;;;;;;;5.75;3.60;;;23.80;86.30;;;;;;5055085;28;20032;-79
2021/06/04 08:09:18;;;;;;;9.30;4.20;;;23.70;89.10;;;;;;5036836;28;20029;-81
2021/06/04 08:11:47;;;;;;;8.38;4.20;;;23.60;89.30;;;;;;5036857;28;20120;-80
2021/06/04 08:14:17;;;;;;;10.15;4.35;;;23.60;89.90;;;;;;5053867;28;20040;-78
2021/06/04 08:16:45;;;;;;;5.03;3.20;;;23.70;90.20;;;;;;5054986;28;20041;-79
2021/06/04 08:19:12;;;;;;;34.40;8.40;;;23.80;88.50;;;;;;5054687;28;20021;-80
2021/06/04 08:21:42;;;;;;;10.77;5.30;;;23.90;88.10;;;;;;5037277;28;20464;-78
2021/06/04 08:24:10;;;;;;;6.00;3.83;;;24.00;89.50;;;;;;5036962;28;20025;-78
2021/06/04 08:26:38;;;;;;;14.38;7.95;;;24.20;87.70;;;;;;5054895;28;20036;-79
2021/06/04 08:29:05;;;;;;;4.88;3.58;;;24.20;87.40;;;;;;5037213;28;20719;-80
2021/06/04 08:31:31;;;;;;;14.02;5.57;;;24.30;86.90;;;;;;5032444;28;20056;-79
2021/06/04 08:33:58;;;;;;;5.35;3.70;;;24.40;85.10;;;;;;5034425;28;20025;-78
2021/06/04 08:36:33;;;;;;;8.07;3.85;;;24.40;86.10;;;;;;5034490;28;20033;-77
2021/06/04 08:39:02;;;;;;;8.40;3.55;;;24.60;86.20;;;;;;5033007;28;20072;-78
2021/06/04 08:41:42;;;;;;;8.85;6.90;;;24.70;86.60;;;;;;5034779;28;20072;-79
2021/06/04 08:44:20;;;;;;;8.60;4.03;;;24.80;85.10;;;;;;5032108;28;20025;-80
2021/06/04 08:47:19;;;;;;;5.97;3.45;;;24.70;85.30;;;;;;5033057;28;20067;-79
2021/06/04 08:49:59;;;;;;;6.57;3.97;;;24.70;84.60;;;;;;5016749;28;20042;-79
2021/06/04 08:52:31;;;;;;;8.23;4.63;;;24.70;83.50;;;;;;5032962;28;20029;-77
2021/06/04 08:55:15;;;;;;;7.30;3.35;;;24.80;84.10;;;;;;5033208;28;20024;-77
2021/06/04 08:58:22;;;;;;;6.43;3.25;;;24.90;84.20;;;;;;5034030;28;20136;-78
2021/06/04 09:01:03;;;;;;;4.50;2.75;;;24.80;80.80;;;;;;5032762;28;20036;-77
2021/06/04 09:03:44;;;;;;;4.60;2.67;;;24.90;79.70;;;;;;5031849;28;20381;-79
2021/06/04 09:06:13;;;;;;;6.93;2.63;;;24.90;79.30;;;;;;5032817;28;20058;-78
2021/06/04 09:08:43;;;;;;;7.15;3.10;;;25.00;80.20;;;;;;5031593;28;20025;-77
2021/06/04 09:11:19;;;;;;;4.35;2.40;;;25.10;79.60;;;;;;5032834;28;20109;-78
2021/06/04 09:13:45;;;;;;;6.30;2.72;;;25.10;78.00;;;;;;5033074;28;20021;-78
2021/06/04 09:16:20;;;;;;;7.90;2.80;;;25.20;78.60;;;;;;5032768;28;20021;-79
2021/06/04 09:18:53;;;;;;;5.57;2.47;;;25.30;78.30;;;;;;5031292;28;20037;-79
2021/06/04 09:21:33;;;;;;;4.35;2.58;;;25.60;75.80;;;;;;5031746;28;20029;-78
2021/06/04 09:24:02;;;;;;;7.13;2.60;;;25.50;75.10;;;;;;5032598;28;20385;-79
2021/06/04 09:26:29;;;;;;;8.60;3.60;;;25.50;77.60;;;;;;5032396;28;20101;-79
2021/06/04 09:29:04;;;;;;;5.30;2.72;;;25.50;75.50;;;;;;5032785;28;20029;-79
2021/06/04 09:31:36;;;;;;;4.15;2.55;;;25.60;74.80;;;;;;5044530;28;20049;-78
2021/06/04 09:34:31;;;;;;;4.95;2.78;;;25.70;75.00;;;;;;5053003;28;20099;-78
2021/06/04 09:37:11;;;;;;;5.93;3.17;;;25.80;75.10;;;;;;5052740;28;20862;-80
2021/06/04 09:39:48;;;;;;;7.32;3.45;;;25.70;74.60;;;;;;5052705;28;20032;-80
2021/06/04 09:42:27;;;;;;;6.78;3.10;;;25.60;76.30;;;;;;5052576;28;20028;-80
2021/06/04 09:45:12;;;;;;;3.55;2.75;;;25.80;74.80;;;;;;5053373;28;20029;-83
2021/06/04 09:47:42;;;;;;;5.00;2.83;;;25.80;75.70;;;;;;5053380;28;20476;-79
2021/06/04 09:50:23;;;;;;;10.27;2.97;;;26.00;75.20;;;;;;5053484;28;20028;-81
2021/06/04 09:53:16;;;;;;;4.65;2.75;;;26.00;74.30;;;;;;5053236;28;20052;-81
2021/06/04 09:55:45;;;;;;;7.10;2.95;;;26.10;73.40;;;;;;5053009;28;20029;-81
2021/06/04 09:58:13;;;;;;;4.80;2.33;;;26.30;72.80;;;;;;5035619;28;20071;-80
2021/06/04 10:00:54;;;;;;;6.90;2.90;;;26.40;68.60;;;;;;5053412;28;20108;-81
2021/06/04 10:03:22;;;;;;;6.35;2.60;;;26.30;73.30;;;;;;5053182;28;20025;-82
2021/06/04 10:06:10;;;;;;;6.03;2.50;;;26.60;71.90;;;;;;5053739;28;20020;-81
2021/06/04 10:08:45;;;;;;;9.48;3.13;;;26.60;70.30;;;;;;5053175;28;20052;-80
2021/06/04 10:11:46;;;;;;;3.80;2.70;;;26.80;70.90;;;;;;5052869;28;20029;-81
2021/06/04 10:19:43;;;;;;;7.53;3.17;;;26.40;68.50;;;;;;5053403;28;20110;-81
2021/06/04 10:22:32;;;;;;;4.88;2.45;;;26.00;70.10;;;;;;5053148;28;20021;-81
2021/06/04 10:25:00;;;;;;;5.80;3.45;;;25.70;71.00;;;;;;5034385;28;20021;-78
2021/06/04 10:27:30;;;;;;;5.20;2.35;;;25.80;71.30;;;;;;5052609;28;20029;-80
2021/06/04 10:30:01;;;;;;;5.78;2.00;;;26.10;73.30;;;;;;5052586;28;20453;-79
2021/06/04 10:32:33;;;;;;;5.15;2.50;;;26.20;69.30;;;;;;5052929;28;20063;-78
2021/06/04 10:35:11;;;;;;;3.22;2.22;;;26.20;70.60;;;;;;5053189;28;20021;-78
2021/06/04 10:38:09;;;;;;;6.72;2.92;;;26.30;68.50;;;;;;5035376;28;20033;-81
2021/06/04 10:40:51;;;;;;;3.47;2.60;;;26.40;68.90;;;;;;5051804;28;20044;-78
2021/06/04 10:43:28;;;;;;;3.92;2.63;;;26.50;71.10;;;;;;5053081;28;20033;-80
2021/06/04 10:45:55;;;;;;;5.80;2.33;;;26.80;70.20;;;;;;5052991;28;20297;-80
2021/06/04 10:48:39;;;;;;;5.75;2.40;;;27.00;68.80;;;;;;5053200;28;20469;-78
2021/06/04 10:51:29;;;;;;;4.00;2.70;;;27.10;67.50;;;;;;5053127;28;20032;-83
2021/06/04 10:54:12;;;;;;;6.43;2.58;;;26.90;66.60;;;;;;5054720;28;20029;-76
2021/06/04 10:56:55;;;;;;;3.17;2.13;;;26.70;69.20;;;;;;5038568;28;20029;-76
2021/06/04 10:59:44;;;;;;;5.00;2.53;;;26.90;67.10;;;;;;5056566;28;20021;-76
2021/06/04 11:02:57;;;;;;;2.83;2.45;;;27.00;65.80;;;;;;5038504;28;20057;-77
2021/06/04 11:06:01;;;;;;;4.30;2.30;;;26.90;65.90;;;;;;5039040;28;20065;-77
2021/06/04 11:08:55;;;;;;;3.72;2.45;;;26.70;67.10;;;;;;5015248;28;20059;-75
2021/06/04 11:11:39;;;;;;;7.78;2.70;;;26.80;69.30;;;;;;5053102;28;20096;-76
2021/06/04 11:14:24;;;;;;;4.22;2.63;;;27.10;68.80;;;;;;5038384;28;20028;-78
2021/06/04 11:17:12;;;;;;;4.13;2.10;;;27.20;66.80;;;;;;5038521;28;20500;-78
2021/06/04 11:19:43;;;;;;;2.63;2.25;;;27.20;66.30;;;;;;5038459;28;20021;-78
2021/06/04 11:22:38;;;;;;;3.10;2.45;;;27.00;66.00;;;;;;5038546;28;20403;-77
2021/06/04 11:25:20;;;;;;;4.25;2.33;;;26.50;67.10;;;;;;5015517;28;20037;-77
2021/06/04 11:27:47;;;;;;;4.40;2.38;;;26.60;66.70;;;;;;5038584;28;20033;-78
2021/06/04 11:30:28;;;;;;;4.63;2.20;;;26.90;68.10;;;;;;5037932;28;20066;-78
2021/06/04 11:33:22;;;;;;;4.10;2.70;;;27.10;67.80;;;;;;5038586;28;20029;-77
2021/06/04 11:35:53;;;;;;;5.03;2.50;;;27.10;66.90;;;;;;5036218;28;20025;-77
2021/06/04 11:38:38;;;;;;;4.97;2.40;;;27.20;66.00;;;;;;5037103;28;20033;-77
2021/06/04 11:41:16;;;;;;;4.90;2.70;;;26.80;66.80;;;;;;5038118;28;20029;-76
2021/06/04 11:43:44;;;;;;;3.00;2.80;;;26.80;66.50;;;;;;5032407;28;20419;-77
2021/06/04 11:46:17;;;;;;;3.47;2.40;;;26.60;65.80;;;;;;5037981;28;20035;-76
2021/06/04 11:48:56;;;;;;;6.28;2.72;;;26.80;68.20;;;;;;5036798;28;20087;-78
2021/06/04 11:51:36;;;;;;;3.08;2.70;;;27.20;67.80;;;;;;5055923;28;20105;-79
2021/06/04 11:54:38;;;;;;;3.03;2.45;;;27.50;65.40;;;;;;5054729;28;20112;-77
2021/06/04 11:57:13;;;;;;;8.48;2.83;;;27.70;67.50;;;;;;5037977;28;20434;-78
2021/06/04 11:59:48;;;;;;;5.38;2.55;;;28.00;65.10;;;;;;5038048;28;20067;-77
2021/06/04 12:02:39;;;;;;;5.00;3.10;;;28.00;65.00;;;;;;5037835;28;20033;-78
2021/06/04 12:05:16;;;;;;;3.58;2.40;;;27.90;65.00;;;;;;5036849;28;20814;-79
2021/06/04 12:07:45;;;;;;;4.80;2.45;;;27.80;62.80;;;;;;5036299;28;20028;-76
2021/06/04 12:10:32;;;;;;;3.22;2.60;;;27.80;62.60;;;;;;5037751;28;20024;-80
2021/06/04 12:12:59;;;;;;;7.43;2.50;;;27.50;64.20;;;;;;5037093;28;20029;-76
2021/06/04 12:15:34;;;;;;;5.07;2.78;;;27.10;64.40;;;;;;5037866;28;20024;-79
2021/06/04 12:18:42;;;;;;;5.22;2.90;;;26.60;66.30;;;;;;5037623;28;20403;-78
2021/06/04 12:21:08;;;;;;;4.95;2.80;;;26.30;67.30;;;;;;5017534;28;20112;-77
2021/06/04 12:23:50;;;;;;;3.33;2.28;;;26.20;67.00;;;;;;5054930;28;20110;-76
2021/06/04 12:26:54;;;;;;;5.32;3.13;;;26.40;68.30;;;;;;5037055;28;20480;-76
2021/06/04 12:29:26;;;;;;;3.60;2.65;;;26.90;67.20;;;;;;4973789;28;20114;-77
2021/06/04 12:32:05;;;;;;;6.43;2.58;;;27.20;66.90;;;;;;4973607;28;20055;-76
2021/06/04 12:37:05;;;;;;;4.88;2.67;;;26.90;65.10;;;;;;5034821;28;20091;-76
2021/06/04 12:39:36;;;;;;;4.35;2.60;;;26.70;66.10;;;;;;5033366;28;20022;-76
2021/06/04 12:42:11;;;;;;;4.43;2.90;;;26.40;66.90;;;;;;5033709;28;20112;-76
2021/06/04 12:44:38;;;;;;;5.10;2.92;;;26.40;67.90;;;;;;5033392;28;20029;-76
2021/06/04 12:47:13;;;;;;;4.43;2.63;;;26.60;67.70;;;;;;5033173;28;20021;-76
2021/06/04 12:49:39;;;;;;;4.38;2.70;;;26.90;67.40;;;;;;5032872;28;20033;-76
2021/06/04 12:52:17;;;;;;;6.95;2.60;;;27.10;65.50;;;;;;5033343;28;20112;-75
2021/06/04 12:54:43;;;;;;;4.68;2.42;;;26.90;65.70;;;;;;5028769;28;20116;-76
2021/06/04 12:57:21;;;;;;;6.60;2.67;;;26.90;65.70;;;;;;5032846;28;20553;-76
2021/06/04 12:59:49;;;;;;;5.78;2.58;;;27.20;65.70;;;;;;5034102;28;20020;-78
2021/06/04 13:02:21;;;;;;;3.17;2.60;;;27.40;66.20;;;;;;5033046;28;20425;-76
2021/06/04 13:04:51;;;;;;;4.20;2.30;;;27.50;63.30;;;;;;5030907;28;20371;-77
2021/06/04 13:07:29;;;;;;;3.13;2.20;;;27.70;64.00;;;;;;5030652;28;20477;-76
2021/06/04 13:10:21;;;;;;;5.40;2.45;;;27.60;61.40;;;;;;5032340;28;20087;-78
2021/06/04 13:12:49;;;;;;;7.38;2.50;;;27.70;63.80;;;;;;5033275;28;20032;-75
2021/06/04 13:15:26;;;;;;;5.10;2.25;;;27.80;62.10;;;;;;5033161;28;20033;-78
2021/06/04 13:18:05;;;;;;;3.00;2.35;;;27.80;62.20;;;;;;5034558;28;20034;-79
2021/06/04 13:20:34;;;;;;;3.70;2.28;;;27.80;60.20;;;;;;5033095;28;20022;-77
2021/06/04 13:23:26;;;;;;;2.58;2.30;;;27.90;62.20;;;;;;5034424;28;20519;-82